Terminal Aerodrome Forecast
Issued by NWS Cleveland, OH

Home | Current Version | Previous Version | Text Only | Print | Product List | Glossary Off
Versions: 1 2 3 4 5 6 7 8 9 10 11 12 13 14 15 16 17 18 19 20 21 22 23 24 25 26 27 28 29 30 31 32 33

000
FTUS41 KCLE 162338
TAFCLE
TAF
KCLE 162338Z 1700/1806 VRB03KT 6SM BR SCT008 OVC015
     FM170400 13008KT 2SM -RA BR OVC008
     FM171000 17010KT 4SM -RA BR OVC004
     FM171700 24012G20KT 4SM BR VCSH BKN006 OVC015
     FM172200 24010KT P6SM BKN008 OVC018=

USA.gov is the U.S. government's official web portal to all federal, state and local government web resources and services.